NCAR-RAP Real-Time Weather Data

Output produced by METARs form (10 April 2020  07:18 UTC)
found at http://weather.rap.ucar.edu/surface/
 
KDSM 100654Z 31009KT 10SM CLR M01/M08 A3018 RMK AO2 SLP228 T10111078
KDSM 100554Z 30007KT 10SM CLR M01/M08 A3018 RMK AO2 SLP227 T10111078 10044 21011 401061011 52010
KDSM 100454Z 32008KT 10SM CLR 00/M08 A3017 RMK AO2 SLP221 T00001083
KDSM 100354Z 32006KT 10SM CLR 01/M08 A3016 RMK AO2 SLP221 T00111083
KDSM 100254Z 32012G20KT 10SM FEW070 02/M09 A3015 RMK AO2 SLP216 T00221089 53020
KDSM 100154Z 33013G21KT 10SM SCT070 03/M09 A3013 RMK AO2 SLP208 T00331094
KDSM 100054Z COR 33013G22KT 10SM BKN070 04/M10 A3010 RMK AO2 PK WND 33032/0007 SLP199 VIRGA S-NW T00391100
KDSM 092354Z 32012G32KT 10SM FEW055 BKN075 04/M09 A3009 RMK AO2 PK WND 33033/2340 SLP195 VIRGA E-SW T00441094 10089 20044 53019
KDSM 092254Z 34016G29KT 10SM FEW050 OVC075 05/M10 A3007 RMK AO2 PK WND 31039/2233 SLP189 VIRGA ALQDS T00501100
KDSM 092154Z 32025G36KT 10SM FEW055 BKN075 BKN085 06/M11 A3004 RMK AO2 PK WND 35038/2056 SLP179 VIRGA E-S AND DSNT W-NW T00611106
KDSM 092054Z 32023G38KT 10SM FEW055 SCT080 07/M10 A3003 RMK AO2 PK WND 32042/2032 SLP176 VIRGA T00671100 51016
KDSM 091954Z 33024G40KT 10SM SCT055 BKN075 06/M07 A3002 RMK AO2 PK WND 29054/1856 SLP172 VIRGA T00561067
KDSM 091854Z 33023G40KT 10SM BKN070 09/M07 A3001 RMK AO2 PK WND 29047/1833 SLP165 VIRGA ALQDS T00891072
KDSM 091754Z 32020G38KT 10SM BKN065 08/M06 A2998 RMK AO2 PK WND 31043/1730 SLP157 PRESENT WX VCSH T00831061 10106 20028 53005
KDSM 091654Z 31028G40KT 10SM SCT075 11/M07 A2997 RMK AO2 PK WND 31045/1612 SLP152 T01061072
KDSM 091554Z 29017G26KT 10SM SCT070 BKN130 BKN250 09/M04 A2996 RMK AO2 PK WND 29026/1553 SLP148 T00891044
KDSM 091454Z 29014KT 10SM FEW130 SCT160 BKN250 07/M04 A2997 RMK AO2 SLP151 T00721039 50001
KDSM 091354Z 29015G21KT 10SM BKN150 OVC250 05/M04 A2997 RMK AO2 SLP152 T00501039
KDSM 091254Z 29010KT 10SM SCT150 SCT180 BKN250 04/M04 A2997 RMK AO2 SLP152 T00441039
KDSM 091154Z 28006KT 10SM SCT160 BKN200 BKN250 03/M04 A2997 RMK AO2 SLP151 T00281039 10067 20011 58004
KDSM 091054Z 28006KT 10SM BKN160 BKN250 03/M04 A2998 RMK AO2 SLP156 T00281039
KDSM 090954Z 26006KT 10SM CLR 02/M04 A2998 RMK AO2 SLP154 T00171039
KDSM 090854Z 31007KT 10SM CLR 03/M04 A2998 RMK AO2 SLP154 T00331044 50003